Aeroporto :
LOGIN :

Iscrizione | Disclaimer

   EN    FR    IT 

 










Sommario :    VFR   VFR Marginale   IFR   IFR Intensivo   IFR Molto Intensivo
Visibilità : 
Base nubi : 
>= 8 km
>= 3000ft
5 / 8 km
1000 / 3000 ft
1500m / 5 km
500 / 1000 ft
800 / 1500m
200 / 500 ft
< 800m
< 200 ft
Simboli :   Temporali  Nebbia  Neve Forte  Precipitazioni Forti  Vento > 20 kt
SIGMETs :   Varie  Temporali  Ghiacco  Turbolenza  Onda orograficha  Ceneri Vulcaniche






- Altitudine del aeroporto : 580 ft


LFOA - Avord

ULTIMO METAR :
  • 180530Z AUTO 22003KT CAVOK 02/01 Q1030

METARs OBSOLETI :
  • 180500Z AUTO 22003KT CAVOK 03/02 Q1030
  • 180430Z AUTO 23003KT CAVOK 03/02 Q1030
  • 180400Z AUTO 23005KT CAVOK 03/02 Q1030
  • 180330Z AUTO 22004KT CAVOK 03/02 Q1030
  • 180300Z AUTO 23007KT CAVOK 04/02 Q1030

TAF AMD TAF LFOA
Valido dal 18 a 05 ore il 19 a 03 ore UTC


180530Z 1805/1903 22005KT CAVOK
TEMPO 1812/1819 24012G25KT BKN025TCU
BECMG 1821/1824 24015G25KT SCT010 BKN020
TEMPO 1901/1903 25020G35KT 3000 RA BKN007 BKN020CB



MetMap, La meteo Aeronautica in un colpo d'occhio ! - Copyright ORBIFLY Dicembre 2007 - Disclaimer

ORBIFLY MET'MAP TEAM :

Programmazione e sviluppo : Alexandra Zaïnal
Concezione : Baudouin d'Aumeries
Aiuto per la programmazione : Marc-Olivier Méhu
Supporto tecnico e logistico : Manuel Goepfert
Aiuto per la traduzione : Arnaldo La Scala

Contatto : metmap@orbifly.com




FONTI E CREDITI :

   NOAA